Time;durP1;ratioP1;P1;durP2;ratioP2;P2;SDS_P1;SDS_P2;PMS_P1;PMS_P2;Temp;Humidity;BMP_temperature;BMP_pressure;BME280_temperature;BME280_humidity;BME280_pressure;Samples;Min_cycle;Max_cycle;Signal;HPM_P1;HPM_P2
2022/06/02 00:01:15;;;;;;;8.85;7.43;;;;;;;8.36;85.01;101798.03;4929105;29;20047;-90
2022/06/02 00:03:46;;;;;;;9.13;7.82;;;;;;;8.34;84.92;101797.22;4928774;29;20122;-90
2022/06/02 00:06:33;;;;;;;10.85;7.75;;;;;;;8.30;84.68;101799.06;4929582;29;20051;-89
2022/06/02 00:09:10;;;;;;;9.75;7.43;;;;;;;8.29;84.70;101793.81;4947869;29;20532;-90
2022/06/02 00:11:53;;;;;;;9.50;7.82;;;;;;;8.24;85.02;101793.94;4948121;29;20035;-89
2022/06/02 00:14:38;;;;;;;10.50;7.97;;;;;;;8.23;85.02;101786.88;4989730;28;20061;-91
2022/06/02 00:17:12;;;;;;;;;;;;;;;8.28;82.72;101802.66;4999598;28;20034;-89
2022/06/02 00:19:43;;;;;;;8.57;7.68;;;;;;;8.22;84.91;101786.00;5008459;28;20290;-90
2022/06/02 00:22:22;;;;;;;9.32;7.63;;;;;;;8.18;84.25;101791.44;5008868;28;20479;-92
2022/06/02 00:25:20;;;;;;;10.23;7.65;;;;;;;8.14;84.49;101795.94;5008565;28;20030;-90
2022/06/02 00:28:01;;;;;;;9.73;8.20;;;;;;;8.10;84.84;101801.34;5005130;28;20487;-89
2022/06/02 00:30:56;;;;;;;8.77;7.68;;;;;;;8.07;84.79;101793.47;5008596;28;20026;-91
2022/06/02 00:33:28;;;;;;;11.25;7.93;;;;;;;8.01;85.57;101794.50;5008841;28;20034;-90
2022/06/02 00:35:58;;;;;;;9.38;8.35;;;;;;;7.99;86.06;101797.22;5006200;28;20030;-92
2022/06/02 00:38:31;;;;;;;10.00;8.25;;;;;;;7.95;85.87;101797.31;5007219;28;20034;-90
2022/06/02 00:41:10;;;;;;;11.07;8.50;;;;;;;7.89;86.29;101803.63;5007318;28;20026;-89
2022/06/02 00:44:16;;;;;;;10.65;8.00;;;;;;;7.89;85.69;101811.59;5008309;28;20456;-90
2022/06/02 00:46:53;;;;;;;10.23;8.10;;;;;;;7.86;85.98;101806.38;5006968;28;20034;-89
2022/06/02 00:49:30;;;;;;;11.02;8.77;;;;;;;7.82;85.58;101810.00;5009431;28;20029;-90
2022/06/02 00:52:13;;;;;;;9.48;8.27;;;;;;;7.81;85.49;101817.97;5008342;28;20026;-88
2022/06/02 00:57:48;;;;;;;9.50;8.50;;;;;;;7.72;86.17;101800.53;5007365;28;20088;-90
2022/06/02 01:00:20;;;;;;;12.20;9.10;;;;;;;7.73;86.23;101810.22;5009424;28;20026;-90
2022/06/02 01:02:55;;;;;;;9.75;8.63;;;;;;;7.71;86.38;101817.34;5008559;28;20030;-90
2022/06/02 01:05:42;;;;;;;12.48;9.45;;;;;;;7.65;86.10;101818.38;5008254;28;20022;-90
2022/06/02 01:08:45;;;;;;;9.57;8.57;;;;;;;7.61;85.80;101806.09;4993081;28;20097;-89
2022/06/02 01:11:37;;;;;;;9.75;8.75;;;;;;;7.59;85.83;101813.19;4992887;28;20476;-90
2022/06/02 01:14:27;;;;;;;9.95;8.85;;;;;;;7.56;86.08;101822.97;4992789;28;20034;-91
2022/06/02 01:17:04;;;;;;;11.07;9.80;;;;;;;7.49;86.15;101815.19;5004818;28;20046;-90
2022/06/02 01:19:50;;;;;;;11.55;9.82;;;;;;;7.49;86.64;101816.97;5010756;28;20464;-90
2022/06/02 01:22:19;;;;;;;11.45;9.93;;;;;;;7.47;87.06;101816.13;5012769;28;20022;-89
2022/06/02 01:24:56;;;;;;;12.68;9.88;;;;;;;7.45;86.81;101820.59;5002445;28;20080;-90
2022/06/02 01:27:41;;;;;;;15.23;11.30;;;;;;;7.45;86.96;101810.84;5008496;28;20088;-91
2022/06/02 01:30:37;;;;;;;12.15;10.65;;;;;;;7.44;86.68;101824.13;5012290;28;20030;-89
2022/06/02 01:33:14;;;;;;;13.43;11.05;;;;;;;7.38;87.49;101819.84;5002800;28;20056;-89
2022/06/02 01:35:49;;;;;;;14.40;11.60;;;;;;;7.35;87.54;101817.25;5010124;28;20472;-90
2022/06/02 01:38:28;;;;;;;14.52;11.82;;;;;;;7.30;87.75;101820.91;5012622;28;20133;-90
2022/06/02 01:41:08;;;;;;;13.82;11.68;;;;;;;7.30;88.01;101821.78;5012547;28;20108;-90
2022/06/02 01:43:50;;;;;;;17.50;12.32;;;;;;;7.29;87.95;101813.88;5013192;28;20379;-90
2022/06/02 01:46:41;;;;;;;15.07;12.85;;;;;;;7.23;87.73;101820.16;5013179;28;20073;-89
2022/06/02 01:49:22;;;;;;;15.23;13.00;;;;;;;7.23;88.40;101828.09;5011945;28;20033;-90
2022/06/02 01:52:13;;;;;;;16.70;13.50;;;;;;;7.18;88.73;101827.34;5011294;28;20030;-90
2022/06/02 01:55:17;;;;;;;18.90;13.85;;;;;;;7.12;88.98;101812.47;5010880;28;20026;-90
2022/06/02 01:58:02;;;;;;;20.95;15.32;;;;;;;7.14;89.45;101815.94;4999072;28;20113;-90
2022/06/02 02:00:32;;;;;;;17.90;14.32;;;;;;;7.13;89.85;101813.34;5011747;28;20057;-91
2022/06/02 02:03:11;;;;;;;18.45;13.88;;;;;;;7.11;88.90;101817.81;5010848;28;20037;-91
2022/06/02 02:05:36;;;;;;;17.35;13.90;;;;;;;7.10;89.41;101822.19;5009719;28;20025;-90
2022/06/02 02:08:10;;;;;;;18.52;14.02;;;;;;;7.08;89.40;101815.22;5011392;28;20101;-90
2022/06/02 02:10:47;;;;;;;18.27;13.60;;;;;;;7.07;88.99;101821.41;5011049;28;20108;-90
2022/06/02 02:13:25;;;;;;;20.27;14.02;;;;;;;7.04;88.98;101822.34;5011261;28;20460;-90
2022/06/02 02:16:12;;;;;;;18.88;13.90;;;;;;;7.00;88.51;101825.94;5009010;28;20168;-92
2022/06/02 02:18:49;;;;;;;19.63;14.73;;;;;;;6.96;88.42;101818.97;5010062;28;20037;-92
2022/06/02 02:22:12;;;;;;;16.23;13.40;;;;;;;6.94;87.74;101820.78;5010991;28;20475;-92
2022/06/02 02:25:04;;;;;;;21.90;14.80;;;;;;;6.90;88.71;101832.34;4968751;28;20039;-90
2022/06/02 02:28:03;;;;;;;19.27;14.18;;;;;;;6.86;88.31;101828.88;4968474;28;20049;-90
2022/06/02 02:30:43;;;;;;;18.25;14.13;;;;;;;6.86;89.10;101836.81;4969113;28;20035;-90
2022/06/02 02:33:33;;;;;;;20.52;14.85;;;;;;;6.85;89.14;101834.19;4969183;28;20062;-92
2022/06/02 02:36:22;;;;;;;20.83;15.43;;;;;;;6.83;89.06;101833.34;4967196;28;20105;-90
2022/06/02 02:39:03;;;;;;;19.02;14.68;;;;;;;6.80;89.46;101825.47;4968517;28;20139;-90
2022/06/02 02:41:39;;;;;;;18.25;14.43;;;;;;;6.80;89.49;101831.63;4969494;28;20083;-90
2022/06/02 02:44:31;;;;;;;18.67;14.95;;;;;;;6.79;89.26;101834.31;4969362;28;20035;-90
2022/06/02 02:46:59;;;;;;;22.75;15.18;;;;;;;6.72;89.81;101833.56;4966512;28;20476;-90
2022/06/02 02:49:34;;;;;;;20.10;15.30;;;;;;;6.69;89.71;101834.50;4969023;28;20043;-89
2022/06/02 02:52:27;;;;;;;19.13;14.98;;;;;;;6.67;89.45;101840.72;4968956;28;20453;-89
2022/06/02 02:55:09;;;;;;;23.35;15.52;;;;;;;6.62;89.71;101838.16;4968389;28;20046;-91
2022/06/02 02:57:44;;;;;;;23.55;16.83;;;;;;;6.59;89.92;101832.91;4971329;28;20106;-90
2022/06/02 03:00:20;;;;;;;24.08;17.27;;;;;;;6.58;90.26;101839.13;4972465;28;20042;-90
2022/06/02 03:03:04;;;;;;;22.55;16.92;;;;;;;6.54;90.49;101834.78;4971647;28;20153;-90
2022/06/02 03:05:48;;;;;;;;;;;;;;;6.61;88.72;101843.47;4971512;28;20038;-91
2022/06/02 03:08:34;;;;;;;22.13;17.27;;;;;;;6.54;90.12;101834.78;4971975;28;19922;-91
2022/06/02 03:11:22;;;;;;;22.02;17.13;;;;;;;6.58;90.87;101848.81;4971472;28;20023;-92
2022/06/02 03:14:13;;;;;;;26.38;18.30;;;;;;;6.58;90.57;101849.69;4970801;28;20027;-90
2022/06/02 03:16:40;;;;;;;22.65;18.02;;;;;;;6.55;90.98;101851.50;4934958;29;20441;-92
2022/06/02 03:19:16;;;;;;;27.48;19.38;;;;;;;6.52;91.32;101852.47;4951815;29;20031;-92
2022/06/02 03:22:00;;;;;;;22.30;17.85;;;;;;;6.49;90.97;101855.16;4957833;28;20031;-90
2022/06/02 03:24:44;;;;;;;26.88;19.23;;;;;;;6.47;90.67;101855.16;4970235;28;20031;-91
2022/06/02 03:27:33;;;;;;;24.20;19.15;;;;;;;6.46;90.63;101855.19;4971150;28;20392;-90
2022/06/02 03:30:06;;;;;;;25.83;19.75;;;;;;;6.48;90.96;101856.06;4968809;28;20029;-91
2022/06/02 03:33:05;;;;;;;25.67;19.70;;;;;;;6.47;90.73;101860.44;5007345;28;20041;-90
2022/06/02 03:35:43;;;;;;;25.30;19.17;;;;;;;6.47;90.80;101865.75;5008696;28;20034;-91
2022/06/02 03:38:21;;;;;;;23.30;17.98;;;;;;;6.44;90.49;101871.09;5010309;28;20026;-89
2022/06/02 03:41:00;;;;;;;23.35;18.38;;;;;;;6.41;90.78;101875.56;5009763;28;20041;-91
2022/06/02 03:43:48;;;;;;;21.33;17.63;;;;;;;6.38;90.91;101881.78;5009864;28;20106;-90
2022/06/02 03:46:24;;;;;;;20.50;17.35;;;;;;;6.33;90.87;101872.19;5009111;28;20038;-90
2022/06/02 03:49:43;;;;;;;23.00;17.08;;;;;;;6.35;90.71;101881.81;5011536;28;20033;-88
2022/06/02 03:52:24;;;;;;;23.70;17.67;;;;;;;6.34;90.82;101882.72;4950872;29;20086;-89
2022/06/02 03:55:16;;;;;;;26.08;19.02;;;;;;;6.35;90.72;101884.47;4944442;29;20520;-92
2022/06/02 03:57:50;;;;;;;25.00;18.02;;;;;;;6.37;91.23;101882.69;4928830;29;20079;-90
2022/06/02 04:00:24;;;;;;;24.02;18.80;;;;;;;6.38;90.97;101884.41;4929557;29;20043;-90
2022/06/02 04:02:59;;;;;;;25.40;19.38;;;;;;;6.39;90.94;101888.81;4913163;29;20485;-91
2022/06/02 04:05:46;;;;;;;24.05;18.27;;;;;;;6.40;90.68;101885.28;4931322;29;20063;-90
2022/06/02 04:08:43;;;;;;;24.00;18.73;;;;;;;6.42;91.11;101899.34;4929000;29;20111;-89
2022/06/02 04:11:14;;;;;;;22.35;18.67;;;;;;;6.42;90.80;101894.03;4929216;29;20047;-89
2022/06/02 04:14:11;;;;;;;21.73;17.75;;;;;;;6.45;90.94;101901.94;4928695;29;20074;-90
2022/06/02 04:17:01;;;;;;;26.30;19.15;;;;;;;6.49;90.88;101901.00;4928942;29;20459;-90
2022/06/02 04:22:48;;;;;;;25.60;20.08;;;;;;;6.56;90.47;101907.03;4946973;28;20096;-91
2022/06/02 04:26:04;;;;;;;27.58;20.50;;;;;;;6.61;91.22;101912.25;4997934;28;20034;-91
2022/06/02 04:28:54;;;;;;;25.52;19.80;;;;;;;6.63;90.89;101902.50;4947635;29;20090;-89
2022/06/02 04:31:41;;;;;;;27.38;20.35;;;;;;;6.68;91.01;101909.47;4947911;28;20043;-89
2022/06/02 04:34:43;;;;;;;25.98;20.42;;;;;;;6.71;91.37;101909.41;4948085;29;20050;-91
2022/06/02 04:37:19;;;;;;;30.30;21.25;;;;;;;6.77;91.45;101910.19;4948000;29;20066;-89
2022/06/02 04:40:10;;;;;;;26.15;21.30;;;;;;;6.81;91.97;101918.03;4947311;29;20047;-90
2022/06/02 04:42:54;;;;;;;31.35;22.45;;;;;;;6.87;92.21;101911.78;4947334;29;20421;-91
2022/06/02 04:45:52;;;;;;;30.70;23.38;;;;;;;6.93;91.82;101915.19;4945845;29;20035;-90
2022/06/02 04:48:41;;;;;;;31.88;22.98;;;;;;;7.01;91.68;101922.13;4947709;29;20557;-89
2022/06/02 04:51:17;;;;;;;36.28;24.02;;;;;;;7.08;91.94;101921.97;4947969;29;20058;-89
2022/06/02 04:53:53;;;;;;;33.25;25.02;;;;;;;7.16;92.18;101928.00;4947767;29;20047;-90
2022/06/02 04:57:00;;;;;;;31.80;25.23;;;;;;;7.19;92.13;101921.75;4946571;29;20074;-90
2022/06/02 04:59:35;;;;;;;34.70;25.27;;;;;;;7.33;91.99;101932.09;4970379;28;20113;-90
2022/06/02 05:02:01;;;;;;;35.03;25.75;;;;;;;7.41;92.08;101931.03;4988770;28;20032;-92
2022/06/02 05:04:53;;;;;;;36.75;26.45;;;;;;;7.47;91.88;101924.72;4994177;28;20030;-89
2022/06/02 05:07:48;;;;;;;35.60;26.88;;;;;;;7.56;92.07;101915.72;5008782;28;20057;-92
2022/06/02 05:10:36;;;;;;;33.58;25.33;;;;;;;7.73;91.89;101921.50;5009005;28;20160;-89
2022/06/02 05:13:41;;;;;;;35.65;26.23;;;;;;;7.83;91.58;101925.72;5009360;28;20022;-91
2022/06/02 05:16:14;;;;;;;34.35;25.02;;;;;;;7.92;91.20;101917.56;5007737;28;20034;-90
2022/06/02 05:18:57;;;;;;;34.50;26.40;;;;;;;8.02;90.77;101920.00;5002943;28;20105;-91
2022/06/02 05:21:48;;;;;;;38.10;27.58;;;;;;;8.10;90.79;101918.03;4989304;28;20026;-91
2022/06/02 05:24:19;;;;;;;36.30;26.13;;;;;;;8.21;91.12;101924.84;4993533;28;20841;-91
2022/06/02 05:27:22;;;;;;;40.65;27.83;;;;;;;8.34;91.11;101919.25;5007464;28;20033;-89
2022/06/02 05:30:21;;;;;;;38.33;26.67;;;;;;;8.48;90.82;101919.78;5008327;28;20219;-90
2022/06/02 05:32:58;;;;;;;37.05;27.90;;;;;;;8.55;90.66;101917.88;5007915;28;20065;-92
2022/06/02 05:35:52;;;;;;;33.78;25.95;;;;;;;8.72;89.83;101920.94;5006997;28;20026;-90
2022/06/02 05:38:45;;;;;;;37.17;26.88;;;;;;;8.85;89.48;101925.03;5009102;28;20038;-91
2022/06/02 05:41:44;;;;;;;37.97;26.48;;;;;;;9.00;89.38;101921.09;5009430;28;20034;-92
2022/06/02 05:44:24;;;;;;;33.45;25.50;;;;;;;9.16;89.61;101925.09;5008168;28;20048;-91
2022/06/02 05:47:00;;;;;;;35.08;26.92;;;;;;;9.32;89.62;101927.28;5008812;28;20498;-91
2022/06/02 05:49:41;;;;;;;37.40;25.65;;;;;;;9.55;90.48;101934.63;5009986;28;20030;-90
2022/06/02 05:52:57;;;;;;;33.38;25.77;;;;;;;9.73;89.40;101937.59;5010582;28;20032;-91
2022/06/02 05:55:38;;;;;;;33.30;24.98;;;;;;;9.98;89.78;101940.38;4995722;28;20049;-93
2022/06/02 05:58:24;;;;;;;31.30;23.67;;;;;;;10.19;87.46;101943.28;5012504;28;20036;-93
2022/06/02 06:01:05;;;;;;;29.63;21.73;;;;;;;10.46;85.79;101936.25;5011295;28;20366;-90
2022/06/02 06:03:50;;;;;;;29.92;23.50;;;;;;;10.75;84.33;101943.25;5010376;28;20030;-91
2022/06/02 06:06:44;;;;;;;34.92;24.15;;;;;;;11.07;84.34;101947.44;4992138;28;20026;-91
2022/06/02 06:09:28;;;;;;;24.17;19.73;;;;;;;11.38;82.75;101949.91;4992130;28;20551;-92
2022/06/02 06:11:53;;;;;;;;;;;;;;;11.64;83.20;101946.25;4991615;28;20503;-92
2022/06/02 06:14:25;;;;;;;25.40;20.13;;;;;;;11.94;79.99;101956.72;5002001;28;19913;-93
2022/06/02 06:17:18;;;;;;;24.92;20.23;;;;;;;12.39;79.96;101964.69;5011197;28;20276;-93
2022/06/02 06:20:20;;;;;;;23.85;19.02;;;;;;;12.91;79.01;101959.84;5011258;28;20116;-94
2022/06/02 06:22:55;;;;;;;25.67;18.27;;;;;;;13.25;76.14;101960.22;4997599;28;20038;-91
2022/06/02 06:25:42;;;;;;;20.00;16.10;;;;;;;13.50;74.71;101968.88;5010077;28;20116;-93
2022/06/02 06:28:15;;;;;;;17.52;15.45;;;;;;;13.69;73.46;101975.13;5011328;28;20033;-93
2022/06/02 06:30:46;;;;;;;19.50;15.57;;;;;;;13.83;71.45;101971.81;5011079;28;20049;-93
2022/06/02 06:33:17;;;;;;;19.80;15.90;;;;;;;13.92;70.61;101959.84;5010281;28;20053;-91
2022/06/02 06:36:16;;;;;;;18.00;15.82;;;;;;;13.94;71.30;101965.97;5012911;28;20383;-91
2022/06/02 06:38:50;;;;;;;18.83;16.80;;;;;;;13.93;70.91;101983.84;5010151;28;20034;-92
2022/06/02 06:41:33;;;;;;;19.80;16.10;;;;;;;13.90;69.79;101975.94;5010827;28;20030;-90
2022/06/02 06:44:33;;;;;;;17.27;14.95;;;;;;;14.05;71.43;101976.19;5009244;28;20040;-93
2022/06/02 06:47:08;;;;;;;18.27;15.70;;;;;;;14.06;70.99;101994.84;5011054;28;20029;-90
2022/06/02 06:49:58;;;;;;;17.98;16.08;;;;;;;14.05;69.95;101997.59;5011108;28;20105;-93
2022/06/02 06:52:35;;;;;;;16.65;14.88;;;;;;;14.11;69.88;101997.28;5010516;28;20034;-91
2022/06/02 06:55:32;;;;;;;19.05;15.90;;;;;;;14.25;69.68;102000.16;5008069;28;20061;-91
2022/06/02 06:58:11;;;;;;;21.25;15.93;;;;;;;14.27;68.77;101998.31;5010740;28;20557;-91
2022/06/02 07:00:44;;;;;;;17.77;15.90;;;;;;;14.58;68.54;102005.72;5010195;28;20461;-91
2022/06/02 07:03:14;;;;;;;20.02;16.90;;;;;;;14.65;68.50;102000.97;5008356;28;20045;-90
2022/06/02 07:05:48;;;;;;;17.63;14.60;;;;;;;14.78;68.77;102002.06;5010438;28;20034;-91
2022/06/02 07:08:30;;;;;;;17.30;14.45;;;;;;;14.84;66.36;102003.56;5010246;28;20030;-91
2022/06/02 07:14:07;;;;;;;15.15;13.55;;;;;;;14.61;65.17;102004.72;5009231;28;20463;-92
2022/06/02 07:16:46;;;;;;;15.13;12.80;;;;;;;14.42;66.64;102010.97;5000767;28;20038;-91
2022/06/02 07:19:28;;;;;;;14.00;11.25;;;;;;;14.30;66.35;102016.03;4991673;28;20041;-93
2022/06/02 07:22:05;;;;;;;12.98;11.50;;;;;;;14.70;66.90;102015.84;4989889;28;20034;-91
2022/06/02 07:24:47;;;;;;;14.07;12.02;;;;;;;15.55;65.27;102011.50;5004739;28;20165;-90
2022/06/02 07:27:28;;;;;;;11.95;10.75;;;;;;;16.14;61.99;102015.50;5009819;28;20456;-91
2022/06/02 07:29:53;;;;;;;11.82;10.10;;;;;;;16.79;58.88;102018.97;5009217;28;20559;-90
2022/06/02 07:32:30;;;;;;;13.45;10.93;;;;;;;16.79;57.29;102021.66;5010250;28;20095;-91
2022/06/02 07:35:00;;;;;;;8.90;7.95;;;;;;;16.48;57.56;102019.84;5009128;28;20044;-91
2022/06/02 07:37:38;;;;;;;7.18;6.38;;;;;;;16.93;59.03;102010.97;5009238;28;20034;-92
2022/06/02 07:40:27;;;;;;;6.65;6.03;;;;;;;17.54;55.65;102018.97;5010142;28;20032;-92
2022/06/02 07:43:07;;;;;;;5.80;4.90;;;;;;;17.10;55.79;102025.25;5008292;28;20037;-92
2022/06/02 07:45:49;;;;;;;8.25;6.55;;;;;;;16.95;56.06;102023.47;5009797;28;20382;-94
2022/06/02 07:48:31;;;;;;;6.70;6.10;;;;;;;17.88;55.38;102025.84;5010769;28;20040;-92
2022/06/02 07:51:17;;;;;;;5.15;3.90;;;;;;;19.25;52.26;102020.47;5009596;28;20148;-90
2022/06/02 07:54:02;;;;;;;4.75;3.85;;;;;;;20.16;48.36;102013.13;5008707;28;20026;-92
2022/06/02 07:56:34;;;;;;;4.75;4.20;;;;;;;20.57;46.17;102010.13;5010915;28;20033;-92
2022/06/02 07:59:18;;;;;;;5.75;5.18;;;;;;;21.25;45.00;102007.69;5011040;28;20037;-91
2022/06/02 08:02:03;;;;;;;6.05;5.25;;;;;;;22.15;45.20;102015.94;5011336;28;20044;-90
2022/06/02 08:04:47;;;;;;;6.07;5.47;;;;;;;23.06;42.71;102011.03;5008459;28;20200;-91
2022/06/02 08:07:22;;;;;;;;;;;;;;;23.55;46.13;102011.38;5010588;28;20029;-94
2022/06/02 08:10:00;;;;;;;7.68;6.05;;;;;;;23.47;40.71;102014.75;5012937;28;19914;-95
2022/06/02 08:12:56;;;;;;;6.20;5.60;;;;;;;23.59;39.87;102018.25;4996897;28;20484;-92
2022/06/02 08:15:34;;;;;;;6.18;5.57;;;;;;;23.63;38.63;102006.13;5008812;28;20148;-91
2022/06/02 08:18:24;;;;;;;6.35;5.75;;;;;;;24.14;40.77;101999.78;5007482;28;20034;-92
2022/06/02 08:21:15;;;;;;;6.38;5.78;;;;;;;24.36;37.13;102007.69;5008392;28;20104;-92
2022/06/02 08:23:55;;;;;;;6.43;5.82;;;;;;;24.82;37.94;102011.66;5006770;28;20105;-92
2022/06/02 08:26:49;;;;;;;7.00;5.35;;;;;;;25.27;36.93;102004.78;5009412;28;20129;-92
2022/06/02 08:29:53;;;;;;;6.30;5.70;;;;;;;25.30;36.73;102009.97;4980581;28;20491;-91
2022/06/02 08:32:45;;;;;;;5.82;5.32;;;;;;;25.41;35.69;102011.66;5013590;28;20046;-92
2022/06/02 08:35:13;;;;;;;6.13;5.00;;;;;;;25.68;32.78;102021.78;5008593;28;20037;-90
2022/06/02 08:38:04;;;;;;;5.10;4.60;;;;;;;26.30;35.27;102029.28;5007971;28;20030;-93
2022/06/02 08:40:48;;;;;;;5.65;5.10;;;;;;;26.36;31.22;102030.53;5009759;28;20026;-92
2022/06/02 08:43:39;;;;;;;5.90;5.40;;;;;;;26.01;31.59;102029.44;5007692;28;20483;-93
2022/06/02 08:46:26;;;;;;;5.32;4.82;;;;;;;25.40;31.44;102027.16;5008641;28;20030;-91
2022/06/02 08:49:05;;;;;;;5.18;4.57;;;;;;;25.79;33.02;102029.78;5007682;28;20636;-90
2022/06/02 08:51:40;;;;;;;5.38;4.15;;;;;;;26.43;31.98;102022.63;5009000;28;20058;-89
2022/06/02 08:54:17;;;;;;;6.88;4.30;;;;;;;26.21;31.12;102030.22;5007343;28;20092;-91
2022/06/02 08:57:12;;;;;;;4.82;4.32;;;;;;;26.94;31.92;102026.59;5008118;28;20416;-88
2022/06/02 09:00:03;;;;;;;5.57;4.35;;;;;;;27.98;29.14;102021.22;5008605;28;20036;-88
2022/06/02 09:02:45;;;;;;;4.28;3.20;;;;;;;27.97;27.63;102020.38;5004965;28;20550;-91
2022/06/02 09:05:19;;;;;;;4.07;3.53;;;;;;;28.14;27.58;102021.31;5008728;28;20112;-88
2022/06/02 09:08:03;;;;;;;4.07;3.70;;;;;;;27.27;27.46;102023.16;5008655;28;20376;-88
2022/06/02 09:10:28;;;;;;;4.78;4.07;;;;;;;25.30;29.22;102026.31;5007229;28;20108;-88
2022/06/02 09:13:18;;;;;;;4.78;4.22;;;;;;;25.64;31.96;102021.22;5006667;28;20623;-89
2022/06/02 09:15:56;;;;;;;4.70;4.30;;;;;;;27.23;31.27;102016.28;5007967;28;20092;-88
2022/06/02 09:19:00;;;;;;;5.47;4.50;;;;;;;28.01;30.21;102023.66;5008361;28;20516;-89
2022/06/02 09:21:33;;;;;;;6.30;5.70;;;;;;;28.24;27.61;102030.22;5008533;28;20116;-90
2022/06/02 09:24:32;;;;;;;7.07;6.38;;;;;;;28.70;29.35;102017.03;5006716;28;20041;-89
2022/06/02 09:27:37;;;;;;;6.00;5.50;;;;;;;29.48;29.35;102027.53;5009981;28;20040;-89
2022/06/02 09:30:31;;;;;;;4.85;4.45;;;;;;;30.01;28.24;102026.06;5012355;28;20026;-87
2022/06/02 09:33:33;;;;;;;4.80;4.40;;;;;;;29.37;25.37;102032.53;5010596;28;20064;-88
2022/06/02 09:36:09;;;;;;;4.68;4.25;;;;;;;29.78;26.91;102022.38;5012480;28;20038;-88
2022/06/02 09:38:43;;;;;;;5.75;4.50;;;;;;;29.96;26.00;102028.47;5012594;28;20471;-91
2022/06/02 09:41:16;;;;;;;4.50;4.20;;;;;;;30.29;24.70;102028.38;5013900;28;20033;-90
2022/06/02 09:44:15;;;;;;;4.18;3.83;;;;;;;30.94;26.11;102025.25;5010793;28;20084;-90
2022/06/02 09:46:40;;;;;;;5.13;4.63;;;;;;;31.25;23.33;102027.03;5012900;28;20026;-91
2022/06/02 09:49:33;;;;;;;5.37;4.10;;;;;;;31.59;24.63;102017.47;5013024;28;20058;-90
2022/06/02 09:52:04;;;;;;;5.13;4.63;;;;;;;30.54;23.52;102020.00;5010931;28;20301;-92
2022/06/02 09:55:01;;;;;;;6.53;5.03;;;;;;;28.29;26.46;102035.22;5012494;28;20113;-91
2022/06/02 09:58:02;;;;;;;6.47;5.10;;;;;;;28.75;28.87;102036.56;5001300;28;20206;-89
2022/06/02 10:00:39;;;;;;;5.43;4.63;;;;;;;29.76;24.42;102029.91;5013548;28;20036;-92
2022/06/02 10:03:17;;;;;;;4.43;4.03;;;;;;;30.15;23.98;102029.13;5011481;28;20048;-91
2022/06/02 10:06:01;;;;;;;4.60;4.20;;;;;;;30.87;23.75;102026.16;5012290;28;20033;-89
2022/06/02 10:08:48;;;;;;;5.18;3.67;;;;;;;31.76;23.26;102018.97;5014562;28;20025;-90
2022/06/02 10:11:37;;;;;;;3.80;3.40;;;;;;;33.04;21.29;102034.19;5007453;28;20030;-91
2022/06/02 10:14:15;;;;;;;3.42;3.13;;;;;;;33.42;22.18;102020.91;5011572;28;20037;-90
2022/06/02 10:17:03;;;;;;;4.40;3.78;;;;;;;33.04;20.99;102021.25;5010705;28;20091;-89
2022/06/02 10:19:43;;;;;;;4.15;3.80;;;;;;;31.12;21.23;102024.91;5011475;28;20083;-88
2022/06/02 10:22:17;;;;;;;4.20;3.90;;;;;;;30.82;21.91;102025.88;5010148;28;20427;-90
2022/06/02 10:25:01;;;;;;;4.40;4.00;;;;;;;29.50;23.64;102021.88;5011109;28;20570;-91
2022/06/02 10:27:39;;;;;;;4.60;4.03;;;;;;;30.54;24.07;102015.34;5011468;28;20033;-89
2022/06/02 10:30:42;;;;;;;5.32;4.82;;;;;;;33.11;20.80;102013.88;5010602;28;20030;-91
2022/06/02 10:33:15;;;;;;;4.72;4.32;;;;;;;33.53;19.78;102017.66;4974591;28;20045;-91
2022/06/02 10:36:08;;;;;;;4.65;4.20;;;;;;;32.26;21.60;102014.59;4972211;28;20477;-92
2022/06/02 10:38:51;;;;;;;4.60;4.30;;;;;;;32.57;21.23;102014.38;4975436;28;20127;-90
2022/06/02 10:41:19;;;;;;;5.70;4.60;;;;;;;32.88;21.21;102010.44;4970962;28;20030;-90
2022/06/02 10:44:14;;;;;;;5.53;5.03;;;;;;;34.13;21.58;102009.72;4951860;28;20054;-91
2022/06/02 10:47:17;;;;;;;6.35;5.30;;;;;;;34.20;20.97;102008.69;4952041;29;20511;-89
2022/06/02 10:49:53;;;;;;;4.20;3.88;;;;;;;34.36;20.16;102009.38;4951683;28;20032;-90
2022/06/02 10:53:04;;;;;;;4.70;4.30;;;;;;;33.54;21.35;102012.97;4961415;28;20138;-90
2022/06/02 10:55:54;;;;;;;5.68;5.18;;;;;;;31.24;23.21;102008.84;4971965;28;20302;-91
2022/06/02 10:58:50;;;;;;;5.82;5.32;;;;;;;28.84;24.77;102012.78;4970945;28;20094;-91
2022/06/02 11:01:47;;;;;;;5.85;5.45;;;;;;;26.39;27.26;102013.88;4970773;28;20039;-90
2022/06/02 11:04:33;;;;;;;6.05;5.30;;;;;;;24.86;30.09;102017.69;4964137;28;20035;-90
2022/06/02 11:07:30;;;;;;;5.90;5.30;;;;;;;24.52;30.74;102006.34;4950721;28;20569;-90
2022/06/02 11:10:08;;;;;;;6.57;5.93;;;;;;;23.73;31.07;101996.16;4935985;29;20050;-91
2022/06/02 11:12:52;;;;;;;6.05;5.50;;;;;;;24.16;31.26;102000.50;4947540;29;20066;-90
2022/06/02 11:15:59;;;;;;;6.72;6.13;;;;;;;24.62;30.51;101990.00;4951558;29;20050;-90
2022/06/02 11:18:53;;;;;;;6.30;5.68;;;;;;;26.20;29.12;102001.19;4954648;29;20050;-90
2022/06/02 11:21:39;;;;;;;5.80;5.30;;;;;;;26.33;27.25;101996.25;4947916;29;20131;-90
2022/06/02 11:24:35;;;;;;;5.60;5.10;;;;;;;25.35;29.36;101994.03;4949646;29;20466;-91
2022/06/02 11:27:37;;;;;;;6.28;5.68;;;;;;;27.86;27.16;101987.81;4951656;29;20046;-91
2022/06/02 11:30:40;;;;;;;6.18;5.68;;;;;;;31.06;24.08;101989.03;4952244;29;20039;-90
2022/06/02 11:33:42;;;;;;;6.15;5.45;;;;;;;33.52;21.86;101987.47;4948668;29;20047;-91
2022/06/02 11:36:29;;;;;;;4.43;4.10;;;;;;;34.91;19.90;101985.28;4951786;29;20035;-90
2022/06/02 11:39:03;;;;;;;5.28;4.88;;;;;;;34.76;18.11;101979.09;4948383;29;20146;-92
2022/06/02 11:41:37;;;;;;;5.97;5.47;;;;;;;34.74;18.04;101979.31;4944005;29;20051;-90
2022/06/02 11:44:24;;;;;;;5.38;4.97;;;;;;;34.83;18.16;101968.91;4929499;29;20027;-91
2022/06/02 11:47:27;;;;;;;5.53;5.13;;;;;;;36.39;18.22;101969.00;4940147;29;20039;-91
2022/06/02 11:50:28;;;;;;;4.75;4.45;;;;;;;35.73;17.35;101964.56;4952740;28;20090;-94
2022/06/02 11:53:19;;;;;;;4.63;4.22;;;;;;;35.55;18.12;101967.19;4953284;28;20031;-92
2022/06/02 11:56:11;;;;;;;4.40;4.10;;;;;;;36.10;15.87;101967.66;4953494;28;20031;-93
2022/06/02 11:58:51;;;;;;;5.57;5.07;;;;;;;35.95;16.77;101955.97;4952108;28;20031;-94
2022/06/02 12:01:51;;;;;;;5.18;4.70;;;;;;;37.00;17.15;101954.53;4953836;28;20384;-92
2022/06/02 12:04:41;;;;;;;6.22;5.38;;;;;;;37.15;16.72;101943.91;4953763;28;20027;-90
2022/06/02 12:07:31;;;;;;;5.65;5.20;;;;;;;33.40;18.55;101952.16;4951332;28;20031;-93
2022/06/02 12:10:14;;;;;;;6.13;5.63;;;;;;;29.70;21.84;101957.38;4951873;28;20031;-93
2022/06/02 12:12:58;;;;;;;6.95;6.45;;;;;;;29.28;23.88;101950.25;4969040;28;20085;-93
2022/06/02 12:15:59;;;;;;;6.97;6.28;;;;;;;31.80;21.07;101939.63;4972007;28;20114;-91
2022/06/02 12:18:26;;;;;;;7.53;6.93;;;;;;;33.28;18.40;101930.84;4974406;28;20042;-94
2022/06/02 12:21:24;;;;;;;7.68;6.97;;;;;;;34.69;17.21;101932.91;4972129;28;20131;-94
2022/06/02 12:23:50;;;;;;;5.40;4.90;;;;;;;35.01;16.22;101933.19;4970344;28;20042;-93
2022/06/02 12:26:33;;;;;;;6.30;5.40;;;;;;;34.29;17.31;101920.94;4970554;28;20023;-94
2022/06/02 12:29:08;;;;;;;6.30;5.70;;;;;;;33.57;16.88;101922.34;4970894;28;20362;-94
2022/06/02 12:31:58;;;;;;;5.75;5.28;;;;;;;33.78;19.02;101920.50;4990865;28;20041;-93
2022/06/02 12:34:45;;;;;;;7.35;6.70;;;;;;;32.62;18.85;101920.94;5010276;28;20080;-93
2022/06/02 12:37:31;;;;;;;6.35;5.85;;;;;;;33.74;19.12;101916.47;5010533;28;20117;-93
2022/06/02 12:40:30;;;;;;;7.25;6.65;;;;;;;34.88;17.04;101909.09;5009941;28;20742;-94
2022/06/02 12:43:18;;;;;;;7.47;6.82;;;;;;;35.19;16.59;101911.22;5007986;28;20052;-94
2022/06/02 12:45:55;;;;;;;6.28;5.78;;;;;;;33.98;17.91;101915.09;5009650;28;20530;-93
2022/06/02 12:48:28;;;;;;;6.57;5.97;;;;;;;33.38;18.74;101907.31;5009797;28;20026;-92
2022/06/02 12:51:12;;;;;;;6.20;5.70;;;;;;;32.93;18.74;101901.28;5007398;28;20030;-94